Terminal Aerodrome Forecast
Issued by NWS

Current Version | Previous Version | Graphics & Text | Print | Product List | Glossary On
Versions: 1 2 3 4 5 6 7 8 9 10 11 12 13 14 15
000
FTUS41 KPBZ 261121
TAFHLG
TAF
KHLG 261121Z 2612/2712 19004KT P6SM BKN100
     FM261700 20010KT P6SM VCSH BKN040
     FM270000 18005KT P6SM BKN100
     FM270800 20007KT 6SM -SHRA OVC025=

USA.gov is the U.S. government's official web portal to all federal, state and local government web resources and services.